Time;durP1;ratioP1;P1;durP2;ratioP2;P2;SDS_P1;SDS_P2;PMS_P1;PMS_P2;Temp;Humidity;BMP_temperature;BMP_pressure;BME280_temperature;BME280_humidity;BME280_pressure;Samples;Min_cycle;Max_cycle;Signal;HPM_P1;HPM_P2
2022/04/13 02:41:54;;;;;;;9.07;4.33;;;7.50;85.50;;;;;;4947438;29;20233;-93
2022/04/13 02:51:16;;;;;;;5.83;3.60;;;7.10;90.10;;;;;;4890194;29;20208;-91
2022/04/13 03:06:31;;;;;;;5.37;3.80;;;7.20;90.10;;;;;;4853020;29;20197;-92
2022/04/13 08:43:45;;;;;;;5.05;2.60;;;20.00;22.50;;;;;;4935146;29;20551;-95
2022/04/13 08:53:20;;;;;;;2.85;2.20;;;19.80;20.90;;;;;;4867541;29;20668;-94
2022/04/13 08:55:57;;;;;;;3.42;2.30;;;20.70;21.70;;;;;;4863345;29;20216;-94
2022/04/13 08:58:52;;;;;;;3.08;2.30;;;21.50;20.10;;;;;;4857487;29;20241;-92
2022/04/13 09:01:27;;;;;;;2.35;1.95;;;22.00;18.20;;;;;;4862615;29;20310;-89
2022/04/13 09:04:10;;;;;;;3.65;2.30;;;22.70;17.80;;;;;;4862205;29;20214;-90
2022/04/13 09:06:38;;;;;;;5.57;2.47;;;23.30;15.80;;;;;;4873373;29;20655;-88
2022/04/13 09:09:30;;;;;;;4.45;2.30;;;23.50;15.80;;;;;;4918471;29;20230;-87
2022/04/13 09:12:11;;;;;;;3.92;2.40;;;24.40;13.90;;;;;;4911707;29;20186;-88
2022/04/13 09:14:40;;;;;;;4.72;2.45;;;24.80;14.10;;;;;;4918514;29;20257;-88
2022/04/13 09:17:10;;;;;;;5.82;2.67;;;24.90;14.10;;;;;;4938759;29;20200;-88
2022/04/13 09:19:40;;;;;;;2.97;2.13;;;25.40;13.70;;;;;;4942661;29;20275;-89
2022/04/13 09:22:10;;;;;;;3.25;2.60;;;25.70;13.10;;;;;;4958874;29;20205;-88
2022/04/13 09:24:48;;;;;;;4.28;2.63;;;26.30;12.60;;;;;;4959111;29;20219;-88
2022/04/13 09:27:28;;;;;;;5.78;2.72;;;25.80;12.00;;;;;;4958613;29;20659;-88
2022/04/13 09:30:45;;;;;;;3.67;2.78;;;25.60;12.70;;;;;;4958849;29;20189;-87
2022/04/13 09:33:15;;;;;;;5.38;2.97;;;25.50;14.40;;;;;;4958734;29;20216;-89
2022/04/13 09:35:42;;;;;;;5.20;2.90;;;26.10;13.40;;;;;;4957305;28;20197;-87
2022/04/13 09:38:28;;;;;;;4.93;2.80;;;26.20;11.80;;;;;;4958565;29;20225;-87
2022/04/13 09:41:09;;;;;;;5.50;2.70;;;26.90;10.70;;;;;;4958547;29;20520;-88
2022/04/13 09:43:57;;;;;;;6.43;3.50;;;27.70;10.10;;;;;;4940936;29;20637;-88
2022/04/13 09:46:51;;;;;;;4.80;3.92;;;27.10;10.60;;;;;;4958065;29;20223;-87
2022/04/13 09:49:34;;;;;;;6.25;3.90;;;26.70;10.80;;;;;;4941411;29;20201;-88
2022/04/13 09:52:04;;;;;;;10.05;4.35;;;26.90;12.30;;;;;;4958195;29;20204;-88
2022/04/13 09:54:46;;;;;;;7.60;3.88;;;27.30;10.90;;;;;;4957962;29;20208;-88
2022/04/13 09:57:27;;;;;;;7.20;4.18;;;27.30;10.50;;;;;;4958453;29;20211;-87
2022/04/13 09:59:59;;;;;;;6.75;4.20;;;27.60;10.30;;;;;;4971487;29;20256;-88
2022/04/13 10:02:42;;;;;;;7.35;4.20;;;27.80;9.60;;;;;;4972432;29;20189;-88
2022/04/13 10:05:23;;;;;;;9.20;4.55;;;28.00;9.50;;;;;;4958196;29;20247;-88
2022/04/13 10:08:03;;;;;;;6.60;4.30;;;27.40;10.10;;;;;;4958718;29;20204;-87
2022/04/13 10:11:08;;;;;;;8.65;4.78;;;27.80;9.90;;;;;;4957934;29;20228;-88
2022/04/13 10:14:21;;;;;;;6.05;4.10;;;27.50;10.70;;;;;;4957677;29;20189;-88
2022/04/13 10:16:53;;;;;;;5.95;5.10;;;27.70;11.30;;;;;;4958176;29;20283;-88
2022/04/13 10:19:28;;;;;;;8.10;4.68;;;27.30;10.90;;;;;;4957267;29;20208;-89
2022/04/13 10:22:10;;;;;;;7.88;5.70;;;27.30;12.10;;;;;;4957957;29;20189;-87
2022/04/13 10:24:40;;;;;;;8.10;5.72;;;26.80;11.60;;;;;;4957858;29;20726;-89
2022/04/13 10:27:11;;;;;;;8.63;5.53;;;27.30;12.80;;;;;;4957950;29;20705;-89
2022/04/13 10:29:39;;;;;;;10.52;5.60;;;27.40;11.70;;;;;;4956920;29;20200;-89
2022/04/13 10:32:10;;;;;;;9.20;5.82;;;27.50;12.40;;;;;;4958440;29;20220;-89
2022/04/13 10:34:41;;;;;;;8.20;5.90;;;27.60;10.90;;;;;;4942014;29;20195;-86
2022/04/13 10:37:09;;;;;;;11.35;5.32;;;26.90;12.90;;;;;;4959492;29;20195;-87
2022/04/13 10:39:41;;;;;;;7.65;5.25;;;27.30;11.30;;;;;;4959537;29;20197;-88
2022/04/13 10:42:57;;;;;;;7.35;5.40;;;26.80;12.40;;;;;;4958369;29;20712;-87
2022/04/13 10:45:26;;;;;;;8.50;6.07;;;25.30;14.30;;;;;;4958241;29;20292;-87
2022/04/13 10:48:07;;;;;;;10.77;6.72;;;25.70;14.50;;;;;;4958114;28;20288;-88
2022/04/13 10:50:56;;;;;;;7.78;6.45;;;25.20;14.20;;;;;;4958496;29;20196;-88
2022/04/13 10:53:48;;;;;;;7.57;6.47;;;25.60;14.40;;;;;;4958258;29;20207;-88
2022/04/13 10:56:42;;;;;;;9.75;6.85;;;25.70;14.50;;;;;;4940484;29;20540;-88
2022/04/13 10:59:27;;;;;;;7.22;6.07;;;25.70;14.50;;;;;;4956963;29;20189;-88
2022/04/13 11:01:59;;;;;;;8.65;5.75;;;25.90;14.60;;;;;;4940285;29;20204;-88
2022/04/13 11:04:30;;;;;;;6.28;5.57;;;26.10;14.20;;;;;;4957420;29;20189;-88
2022/04/13 11:07:27;;;;;;;9.05;5.75;;;25.90;14.60;;;;;;4957106;29;20554;-88
2022/04/13 11:09:58;;;;;;;7.18;5.90;;;25.70;14.50;;;;;;4957510;29;20578;-91
2022/04/13 11:12:28;;;;;;;7.97;6.22;;;24.40;14.30;;;;;;4957613;29;20193;-92
2022/04/13 11:15:08;;;;;;;19.75;6.75;;;23.10;17.70;;;;;;4957765;29;20193;-91
2022/04/13 11:17:44;;;;;;;9.50;6.10;;;23.50;16.40;;;;;;4959224;29;20200;-92
2022/04/13 11:23:55;;;;;;;9.43;6.55;;;23.40;17.10;;;;;;4920541;29;20707;-94
2022/04/13 11:26:49;;;;;;;7.47;6.25;;;23.30;17.50;;;;;;4898447;29;20227;-94
2022/04/13 11:32:16;;;;;;;8.45;5.97;;;22.90;17.10;;;;;;4865281;29;20259;-94
2022/04/13 11:42:32;;;;;;;7.53;6.13;;;22.70;18.20;;;;;;4801238;29;20252;-94
2022/04/13 12:02:22;;;;;;;7.13;6.32;;;22.60;17.90;;;;;;4831023;29;20288;-94
2022/04/13 12:10:58;;;;;;;10.07;7.85;;;22.40;18.90;;;;;;4987221;23;20240;-93
2022/04/13 14:35:24;;;;;;;9.20;6.97;;;21.50;23.80;;;;;;4990102;28;20172;-94
2022/04/13 14:38:14;;;;;;;8.35;7.15;;;21.50;24.00;;;;;;4973883;28;20641;-94
2022/04/13 14:59:58;;;;;;;10.88;6.85;;;21.20;24.10;;;;;;4784003;30;20232;-94
2022/04/13 22:17:56;;;;;;;16.52;10.00;;;12.20;84.30;;;;;;4894186;29;20187;-92
2022/04/13 22:24:01;;;;;;;18.50;10.93;;;12.10;85.70;;;;;;4893026;29;20168;-93
2022/04/13 22:30:12;;;;;;;14.15;10.07;;;11.90;87.00;;;;;;4839240;29;20193;-92
2022/04/13 22:43:06;;;;;;;15.27;9.82;;;11.90;88.50;;;;;;4894291;29;20195;-93
2022/04/13 22:46:27;;;;;;;14.40;10.13;;;11.80;89.40;;;;;;4891933;29;20215;-92
2022/04/13 23:03:35;;;;;;;18.23;10.32;;;11.50;90.60;;;;;;4948579;29;20197;-92
